Flight Track Log - Related Links

Times and Time Zones

All times are in EDT time to prevent confusion due to time zone crossing. See the FDX1570 flight status page for this flight to view local times or setup timezone preferences in your user account.


Time Position Orientation Groundspeed Altitude Reporting Facility
EDT Latitude Longitude Course Direction KTS MPH feet Rate Location/Type
Wed 04:52:40 AM 35.0333 -89.9667 180° South 174 200 1,000  Level Memphis TRACON
Wed 04:53:40 AM 34.9833 -89.9667 180° South 207 238 3,100 2,476 Climbing Memphis TRACON
Wed 04:54:46 AM 34.9833 -89.8667 90° East 301 346 6,200 2,773 Climbing Memphis TRACON
Wed 04:55:52 AM 35.0167 -89.7667 68° East 308 354 9,200 2,354 Climbing Memphis TRACON
Wed 04:56:56 AM 35.0533 -89.6722 65° Northeast 343 395 11,300 1,694 Climbing Memphis Center
Wed 04:57:56 AM 35.0925 -89.5603 67° East 343 395 12,700 1,950 Climbing Memphis Center
Wed 04:58:56 AM 35.1353 -89.4378 67° East 369 425 15,200 2,250 Climbing Memphis Center
Wed 04:59:56 AM 35.1803 -89.3053 67° East 401 461 17,200 2,000 Climbing Memphis Center
Wed 05:00:56 AM 35.2269 -89.1750 66° East 417 480 19,200 1,900 Climbing Memphis Center
Wed 05:01:56 AM 35.2944 -89.0342 60° Northeast 417 480 21,000 1,700 Climbing Memphis Center
Wed 05:02:56 AM 35.3639 -88.9033 57° Northeast 440 506 22,600 1,885 Climbing Memphis Center
Wed 05:08:37 AM 35.7800 -88.0880 57° Northeast 495 570 33,600 1,969 Climbing FlightAware ADS-B
Wed 05:09:29 AM 35.8430 -87.9640 58° Northeast 488 562 35,500 2,022 Climbing FlightAware ADS-B
Wed 05:10:09 AM 35.8890 -87.8720 58° Northeast 485 558 36,700 1,071 Climbing FlightAware ADS-B
Wed 05:10:53 AM 35.9420 -87.7660 58° Northeast 482 555 37,000 209 Climbing FlightAware ADS-B
Wed 05:11:35 AM 35.9920 -87.6660 58° Northeast 481 554 37,000  Level FlightAware ADS-B
Wed 05:12:13 AM 36.0370 -87.5770 58° Northeast 482 555 37,000  Level FlightAware ADS-B
Wed 05:12:57 AM 36.0870 -87.4750 59° Northeast 485 558 37,000  Level FlightAware ADS-B
Wed 05:13:39 AM 36.1370 -87.3740 58° Northeast 484 557 37,000  Level FlightAware ADS-B
Wed 05:14:19 AM 36.1840 -87.2790 58° Northeast 484 557 37,000  Level FlightAware ADS-B
Wed 05:15:03 AM 36.2350 -87.1770 58° Northeast 486 559 37,000  Level FlightAware ADS-B
Wed 05:15:47 AM 36.2860 -87.0720 59° Northeast 486 559 37,000 214 Level FlightAware ADS-B
Wed 05:16:27 AM 36.3330 -86.9750 59° Northeast 485 558 37,300 923 Climbing FlightAware ADS-B
Wed 05:17:05 AM 36.3750 -86.8890 59° Northeast 483 556 38,200 1,098 Climbing FlightAware ADS-B
Wed 05:17:49 AM 36.4280 -86.7820 58° Northeast 488 562 38,800 558 Climbing FlightAware ADS-B
Wed 05:18:31 AM 36.4770 -86.6780 60° Northeast 488 562 39,000 140 Climbing FlightAware ADS-B
Wed 05:19:15 AM 36.5280 -86.5750 58° Northeast 489 563 39,000  Level FlightAware ADS-B
Wed 05:19:55 AM 36.5740 -86.4790 59° Northeast 489 563 39,000  Level FlightAware ADS-B
Wed 05:20:36 AM 36.6229 -86.3770 59° Northeast 490 564 39,000  Level FlightAware ADS-B
Wed 05:21:06 AM 36.6578 -86.3043 59° Northeast 491 565 39,000  Level FlightAware ADS-B
Wed 05:21:37 AM 36.6934 -86.2290 59° Northeast 490 564 39,000  Level FlightAware ADS-B
Wed 05:22:07 AM 36.7290 -86.1562 59° Northeast 491 565 39,000  Level FlightAware ADS-B
Wed 05:22:37 AM 36.7637 -86.0831 59° Northeast 491 565 39,000  Level FlightAware ADS-B
Wed 05:23:07 AM 36.7985 -86.0099 59° Northeast 491 565 39,000  Level FlightAware ADS-B
Wed 05:23:38 AM 36.8338 -85.9346 60° Northeast 490 564 39,000  Level FlightAware ADS-B
Wed 05:24:52 AM 36.9130 -85.7670 59° Northeast 485 558 39,000  Level FlightAware ADS-B
Wed 05:25:31 AM 36.9510 -85.6880 59° Northeast 485 558 39,000  Level FlightAware ADS-B
Wed 05:26:14 AM 37.0145 -85.5635 57° Northeast 481 554 39,000  Level FlightAware ADS-B
Wed 05:26:53 AM 37.0662 -85.4739 54° Northeast 479 551 39,000  Level FlightAware ADS-B
Wed 05:27:25 AM 37.1080 -85.4025 54° Northeast 478 550 39,000  Level FlightAware ADS-B
Wed 05:27:56 AM 37.1479 -85.3335 54° Northeast 476 548 39,000  Level FlightAware ADS-B
Wed 05:28:27 AM 37.1887 -85.2647 53° Northeast 475 547 39,000  Level FlightAware ADS-B
Wed 05:28:58 AM 37.2281 -85.1957 54° Northeast 475 547 39,000  Level FlightAware ADS-B
Wed 05:29:30 AM 37.2692 -85.1264 53° Northeast 476 548 39,000  Level FlightAware ADS-B
Wed 05:30:00 AM 37.3088 -85.0567 54° Northeast 476 548 39,000  Level FlightAware ADS-B
Wed 05:30:39 AM 37.3586 -84.9691 54° Northeast 477 549 39,000  Level FlightAware ADS-B
Wed 05:31:22 AM 37.4131 -84.8746 54° Northeast 477 549 39,000  Level FlightAware ADS-B
Wed 05:31:53 AM 37.4536 -84.8024 55° Northeast 478 550 39,000  Level FlightAware ADS-B
Wed 05:32:29 AM 37.5000 -84.7210 54° Northeast 478 550 39,000  Level FlightAware ADS-B
Wed 05:33:16 AM 37.5500 -84.6370 53° Northeast 476 548 39,000  Level FlightAware ADS-B
Wed 05:33:52 AM 37.5890 -84.5680 54° Northeast 476 548 39,000  Level FlightAware ADS-B
Wed 05:34:37 AM 37.6630 -84.4320 55° Northeast 477 549 39,000  Level FlightAware ADS-B
Wed 05:35:17 AM 37.7150 -84.3410 54° Northeast 475 547 39,000  Level FlightAware ADS-B
Wed 05:35:55 AM 37.7630 -84.2550 55° Northeast 475 547 39,000  Level FlightAware ADS-B
Wed 05:36:45 AM 37.8260 -84.1440 54° Northeast 475 547 39,000  Level FlightAware ADS-B
Wed 05:37:26 AM 37.8740 -84.0570 55° Northeast 476 548 39,000  Level FlightAware ADS-B
Wed 05:38:07 AM 37.9300 -83.9550 55° Northeast 475 547 39,000  Level FlightAware ADS-B
Wed 05:38:46 AM 37.9730 -83.8800 54° Northeast 475 547 39,000  Level FlightAware ADS-B
Wed 05:39:35 AM 38.0270 -83.7860 54° Northeast 475 547 39,000  Level FlightAware ADS-B
Wed 05:40:11 AM 38.0660 -83.7170 54° Northeast 475 547 39,000  Level FlightAware ADS-B
Wed 05:41:13 AM 38.1340 -83.5980 54° Northeast 475 547 39,000  Level FlightAware ADS-B
Wed 05:41:49 AM 38.1740 -83.5290 54° Northeast 475 547 39,000  Level FlightAware ADS-B
Wed 05:42:34 AM 38.2620 -83.3530 57° Northeast 465 535 39,000  Level FlightAware ADS-B
Wed 05:43:18 AM 38.3140 -83.2560 56° Northeast 467 537 39,000  Level FlightAware ADS-B
Wed 05:44:01 AM 38.3670 -83.1580 55° Northeast 467 537 39,000  Level FlightAware ADS-B
Wed 05:44:40 AM 38.4160 -83.0680 55° Northeast 465 535 39,000  Level FlightAware ADS-B
Wed 05:45:24 AM 38.4690 -82.9710 55° Northeast 465 535 39,000  Level FlightAware ADS-B
Wed 05:46:06 AM 38.5200 -82.8760 56° Northeast 466 536 39,000  Level FlightAware ADS-B
Wed 05:46:40 AM 38.5610 -82.7980 56° Northeast 468 539 39,000  Level FlightAware ADS-B
Wed 05:47:26 AM 38.6150 -82.6980 55° Northeast 469 540 39,000  Level FlightAware ADS-B
Wed 05:48:08 AM 38.6690 -82.5970 56° Northeast 471 542 39,000  Level FlightAware ADS-B
Wed 05:48:54 AM 38.7260 -82.4900 56° Northeast 474 545 39,000  Level FlightAware ADS-B
Wed 05:49:33 AM 38.7720 -82.4040 56° Northeast 476 548 39,000  Level FlightAware ADS-B
Wed 05:50:19 AM 38.8310 -82.2910 56° Northeast 478 550 39,000  Level FlightAware ADS-B
Wed 05:51:01 AM 38.8840 -82.1900 56° Northeast 479 551 39,000  Level FlightAware ADS-B
Wed 05:51:41 AM 38.9330 -82.0980 56° Northeast 480 552 39,000  Level FlightAware ADS-B
Wed 05:52:23 AM 38.9850 -81.9970 56° Northeast 480 552 39,000  Level FlightAware ADS-B
Wed 05:53:05 AM 39.0370 -81.8970 56° Northeast 479 551 39,000  Level FlightAware ADS-B
Wed 05:53:47 AM 39.0890 -81.7980 56° Northeast 478 550 39,000  Level FlightAware ADS-B
Wed 05:54:29 AM 39.1400 -81.7000 56° Northeast 478 550 39,000  Level FlightAware ADS-B
Wed 05:55:03 AM 39.1820 -81.6200 56° Northeast 478 550 39,000  Level FlightAware ADS-B
Wed 05:56:03 AM 39.2560 -81.4750 57° Northeast 479 551 39,000  Level FlightAware ADS-B
Wed 05:56:43 AM 39.3040 -81.3820 56° Northeast 479 551 39,000  Level FlightAware ADS-B
Wed 05:57:23 AM 39.3510 -81.2890 57° Northeast 480 552 39,000  Level FlightAware ADS-B
Wed 05:58:04 AM 39.4020 -81.1910 56° Northeast 481 554 39,000  Level FlightAware ADS-B
Wed 05:58:53 AM 39.4620 -81.0700 57° Northeast 481 554 39,000  Level FlightAware ADS-B
Wed 05:59:29 AM 39.5070 -80.9810 57° Northeast 481 554 39,000  Level FlightAware ADS-B
Wed 06:00:44 AM 39.5800 -80.8390 56° Northeast 480 552 39,000  Level FlightAware ADS-B
Wed 06:01:19 AM 39.6410 -80.7160 57° Northeast 481 554 39,000  Level FlightAware ADS-B
Wed 06:02:09 AM 39.7020 -80.5950 57° Northeast 480 552 39,000  Level FlightAware ADS-B
Wed 06:02:47 AM 39.7480 -80.5030 57° Northeast 482 555 39,000  Level FlightAware ADS-B
Wed 06:03:28 AM 39.7910 -80.4150 58° Northeast 484 557 39,000  Level FlightAware ADS-B
Wed 06:04:10 AM 39.8480 -80.3020 57° Northeast 485 558 39,000  Level FlightAware ADS-B
Wed 06:05:07 AM 39.9160 -80.1650 57° Northeast 487 560 39,000  Level FlightAware ADS-B
Wed 06:05:45 AM 39.9630 -80.0710 57° Northeast 486 559 39,000  Level FlightAware ADS-B
Wed 06:06:35 AM 40.0240 -79.9450 58° Northeast 486 559 39,000  Level FlightAware ADS-B
Wed 06:07:15 AM 40.0730 -79.8460 57° Northeast 486 559 39,000  Level FlightAware ADS-B
Wed 06:08:00 AM 40.1260 -79.7370 58° Northeast 488 562 39,000  Level FlightAware ADS-B
Wed 06:08:40 AM 40.1740 -79.6370 58° Northeast 490 564 39,000  Level FlightAware ADS-B
Wed 06:09:22 AM 40.2250 -79.5310 58° Northeast 493 567 39,000  Level FlightAware ADS-B
Wed 06:09:57 AM 40.2700 -79.4380 58° Northeast 493 567 39,000  Level FlightAware ADS-B
Wed 06:10:45 AM 40.3280 -79.3190 57° Northeast 496 571 39,000  Level FlightAware ADS-B
Wed 06:11:43 AM 40.3980 -79.1710 58° Northeast 497 572 39,000  Level FlightAware ADS-B
Wed 06:12:25 AM 40.4500 -79.0610 58° Northeast 498 573 39,000  Level FlightAware ADS-B
Wed 06:13:05 AM 40.4970 -78.9630 58° Northeast 498 573 39,000  Level FlightAware ADS-B
Wed 06:13:49 AM 40.5530 -78.8450 58° Northeast 497 572 39,000  Level FlightAware ADS-B
Wed 06:14:30 AM 40.6010 -78.7430 58° Northeast 493 567 39,000  Level FlightAware ADS-B
Wed 06:15:38 AM 40.6780 -78.5780 58° Northeast 492 566 39,000  Level FlightAware ADS-B
Wed 06:16:16 AM 40.7260 -78.4780 58° Northeast 492 566 39,000  Level FlightAware ADS-B
Wed 06:16:58 AM 40.7710 -78.3810 58° Northeast 490 564 39,000  Level FlightAware ADS-B
Wed 06:17:48 AM 40.8310 -78.2520 58° Northeast 486 559 39,000  Level FlightAware ADS-B
Wed 06:18:28 AM 40.8780 -78.1510 58° Northeast 486 559 39,000  Level FlightAware ADS-B
Wed 06:19:08 AM 40.9250 -78.0490 59° Northeast 486 559 39,000  Level FlightAware ADS-B
Wed 06:19:53 AM 40.9800 -77.9390 56° Northeast 480 552 39,000 -277 Level FlightAware ADS-B
Wed 06:20:13 AM 41.0070 -77.8930 52° Northeast 476 548 38,700 -1,200 Descending FlightAware ADS-B
Wed 06:21:28 AM 41.1190 -77.7260 48° Northeast 479 551 37,100 -1,200 Descending FlightAware ADS-B
Wed 06:22:03 AM 41.1660 -77.6550 49° Northeast 479 551 36,500 -1,059 Descending FlightAware ADS-B
Wed 06:22:53 AM 41.2430 -77.5390 49° Northeast 476 548 35,600 -867 Descending FlightAware ADS-B
Wed 06:23:33 AM 41.2980 -77.4580 48° Northeast 469 540 35,200 -825 Descending FlightAware ADS-B
Wed 06:24:13 AM 41.3590 -77.3660 49° Northeast 469 540 34,500 -1,350 Descending FlightAware ADS-B
Wed 06:24:53 AM 41.4180 -77.2770 49° Northeast 469 540 33,400 -1,756 Descending FlightAware ADS-B
Wed 06:25:35 AM 41.4750 -77.1900 49° Northeast 464 534 32,100 -1,950 Descending FlightAware ADS-B
Wed 06:26:53 AM 41.5820 -77.0280 49° Northeast 445 512 29,500 -1,576 Descending FlightAware ADS-B
Wed 06:27:33 AM 41.6360 -76.9460 49° Northeast 440 506 29,000 -375 Descending FlightAware ADS-B
Wed 06:28:13 AM 41.6940 -76.8560 49° Northeast 463 533 29,000  Level FlightAware ADS-B
Wed 06:28:53 AM 41.7420 -76.7600 56° Northeast 504 580 29,000 -706 Level FlightAware ADS-B
Wed 06:29:38 AM 41.7850 -76.6200 68° East 513 590 28,000 -1,271 Descending FlightAware ADS-B
Wed 06:30:18 AM 41.8210 -76.5060 67° East 515 593 27,200 -1,059 Descending FlightAware ADS-B
Wed 06:31:03 AM 41.8660 -76.3750 65° Northeast 513 590 26,500 -1,200 Descending FlightAware ADS-B
Wed 06:31:38 AM 41.9070 -76.2820 59° Northeast 508 585 25,600 -1,482 Descending FlightAware ADS-B
Wed 06:32:28 AM 41.9660 -76.1360 61° Northeast 521 600 24,400 -955 Descending FlightAware ADS-B
Wed 06:33:06 AM 41.9970 -76.0460 65° Northeast 520 598 24,200 -140 Descending FlightAware ADS-B
Wed 06:33:54 AM 42.0380 -75.9260 65° Northeast 520 598 24,200 -119 Level FlightAware ADS-B
Wed 06:34:47 AM 42.1000 -75.7420 66° East 503 579 24,000 -135 Descending FlightAware ADS-B
Wed 06:35:23 AM 42.1300 -75.6550 65° Northeast 503 579 24,000  Level FlightAware ADS-B
Wed 06:36:27 AM 42.2060 -75.4400 64° Northeast 506 582 24,000  Level FlightAware ADS-B
Wed 06:37:01 AM 42.2390 -75.3430 65° Northeast 499 574 24,000 -1,174 Level FlightAware ADS-B
Wed 06:37:59 AM 42.2910 -75.1880 66° East 461 531 22,200 -1,113 Descending FlightAware ADS-B
Wed 06:38:38 AM 42.3210 -75.1020 65° Northeast 461 531 22,200  Level FlightAware ADS-B
Wed 06:39:27 AM 42.3580 -74.9930 65° Northeast 461 531 22,200  Level FlightAware ADS-B
Wed 06:40:03 AM 42.3860 -74.9130 65° Northeast 461 531 22,200  Level FlightAware ADS-B
Wed 06:41:05 AM 42.4330 -74.7750 65° Northeast 461 531 22,200  Level FlightAware ADS-B
Wed 06:41:42 AM 42.4620 -74.6920 65° Northeast 461 531 22,200 -7,683 Level FlightAware ADS-B
Wed 06:42:27 AM 42.5061 -74.5411 65° Northeast 392 451 11,700 -8,838 Descending Boston Center
Wed 06:42:56 AM 42.5281 -74.4800 64° Northeast 374 430 11,300 -600 Descending Boston Center
Wed 06:43:27 AM 42.5478 -74.4214 65° Northeast 369 425 11,100 -689 Descending Boston Center
Wed 06:43:57 AM 42.5653 -74.3683 66° East 309 356 10,600 -1,000 Descending Boston Center
Wed 06:44:27 AM 42.5789 -74.3122 72° East 314 361 10,100 -1,279 Descending Boston Center
Wed 06:44:58 AM 42.5817 -74.2561 86° East 305 351 9,300 -1,200 Descending Boston Center
Wed 06:45:27 AM 42.5869 -74.1969 83° East 300 345 8,900 -1,300 Descending Boston Center
Wed 06:45:58 AM 42.5919 -74.1464 82° East 297 342 8,000 -1,800 Descending Boston Center
Wed 06:46:27 AM 42.5969 -74.0872 83° East 290 334 7,100 -1,612 Descending Boston Center
Wed 06:47:05 AM 42.6019 -74.0225 84° East 275 316 6,200 -1,200 Descending Boston Center
Wed 06:47:27 AM 42.6044 -74.0000 81° East 276 318 5,900 -1,400 Descending Boston Center
Wed 06:48:05 AM 42.6094 -73.9267 85° East 260 299 4,800 -1,400 Descending Boston Center
Wed 06:48:27 AM 42.6119 -73.9014 82° East 270 311 4,500 -1,279 Descending Boston Center
Wed 06:49:06 AM 42.6189 -73.8339 82° East 249 287 3,500 -1,200 Descending Boston Center
Wed 06:49:27 AM 42.6194 -73.8056 88° East 258 297 3,300 -545 Descending Boston Center
Wed 06:50:01 AM 42.6222 -73.7492 86° East 233 268 3,000 -300 Descending Boston Center
Wed 06:50:27 AM 42.6247 -73.7128 85° East 235 270 3,000  Level Boston Center
Wed 06:51:01 AM 42.6314 -73.6706 78° East 207 238 3,000 -200 Level Boston Center
Wed 06:51:27 AM 42.6481 -73.6594 26° Northeast 200 230 2,800 -689 Descending Boston Center
Wed 06:52:02 AM 42.6775 -73.6489 15° North 171 197 2,300 -600 Descending Boston Center
Wed 06:52:27 AM 42.6983 -73.6436 11° North 157 181 2,200 -200 Descending Boston Center
Wed 06:53:02 AM 42.7233 -73.6525 345° North 133 153 2,100 -200 Descending Boston Center
Wed 06:53:27 AM 42.7294 -73.6611 314° West 135 155 2,000 -295 Descending Boston Center
Wed 06:54:03 AM 42.7500 -73.6756 333° Northwest 109 125 1,800 -167 Descending Boston Center
Wed 06:54:39 AM 42.7497 -73.7011 269° West 115 132 1,800 -295 Level Boston Center
Wed 06:55:04 AM 42.7517 -73.7153 281° West 110 127 1,500 -300 Descending Boston Center
Wed 06:55:39 AM 42.7600 -73.7325 303° West 108 124 1,500 -600 Level Boston Center
Wed 06:56:04 AM 42.7492 -73.7575 239° Southwest 101 116 900 -1,440 Descending Boston Center

Login

Don't have an account? Register now (free) for customized features, flight alerts, and more!